Time;durP1;ratioP1;P1;durP2;ratioP2;P2;SDS_P1;SDS_P2;PMS_P1;PMS_P2;Temp;Humidity;BMP_temperature;BMP_pressure;BME280_temperature;BME280_humidity;BME280_pressure;Samples;Min_cycle;Max_cycle;Signal;HPM_P1;HPM_P2
2023/01/19 00:00:34;;;;;;;31.55;17.27;;;;;;;8.42;65.15;99060.94;5110624;28;20043;-86
2023/01/19 00:03:18;;;;;;;28.52;15.70;;;;;;;8.29;65.40;99054.69;5085974;28;20411;-86
2023/01/19 00:06:05;;;;;;;27.60;13.73;;;;;;;8.38;65.42;99058.09;5112436;28;20402;-86
2023/01/19 00:08:50;;;;;;;27.85;16.30;;;;;;;8.25;65.59;99055.72;5093719;28;20047;-86
2023/01/19 00:11:35;;;;;;;;;;;;;;;8.00;66.84;99049.53;5118823;28;20063;-85
2023/01/19 00:14:19;;;;;;;31.73;16.52;;;;;;;8.38;65.45;99058.09;5095891;28;19912;-85
2023/01/19 00:17:04;;;;;;;;;;;;;;;8.58;64.93;99061.81;5092785;28;20407;-85
2023/01/19 00:19:49;;;;;;;30.45;17.70;;;;;;;8.47;64.50;99066.91;5085539;28;19912;-85
2023/01/19 00:22:34;;;;;;;23.92;14.32;;;;;;;8.46;64.68;99059.91;5098781;28;20540;-85
2023/01/19 00:25:18;;;;;;;21.67;13.95;;;;;;;7.91;66.42;99063.19;5116175;28;20047;-85
2023/01/19 00:28:03;;;;;;;24.67;13.98;;;;;;;7.97;66.84;99058.34;5117528;28;20419;-86
2023/01/19 00:30:50;;;;;;;22.55;13.55;;;;;;;7.85;67.60;99056.41;5126310;28;20043;-87
2023/01/19 00:33:36;;;;;;;33.22;17.45;;;;;;;8.07;67.01;99049.75;5117535;28;20117;-85
2023/01/19 00:36:20;;;;;;;32.63;18.58;;;;;;;8.06;67.03;99048.19;5105499;28;20059;-85
2023/01/19 00:39:06;;;;;;;27.05;14.52;;;;;;;8.23;68.58;99039.81;5103594;28;20430;-85
2023/01/19 00:44:54;;;;;;;30.70;17.10;;;;;;;8.35;67.35;99033.63;5108659;28;20039;-85
2023/01/19 00:47:39;;;;;;;32.00;17.45;;;;;;;8.48;68.60;99029.78;5109286;28;20050;-85
2023/01/19 00:50:25;;;;;;;;;;;;;;;8.56;66.01;99032.34;5097326;28;20055;-85
2023/01/19 00:53:09;;;;;;;25.05;13.50;;;;;;;8.45;65.96;99039.34;5088230;28;19912;-86
2023/01/19 00:55:54;;;;;;;30.48;16.98;;;;;;;8.32;65.79;99039.72;5085851;28;20047;-86
2023/01/19 00:58:38;;;;;;;23.83;15.32;;;;;;;8.18;65.64;99040.03;5087303;28;20042;-86
2023/01/19 01:01:23;;;;;;;21.85;13.35;;;;;;;8.12;65.82;99033.28;5119364;28;20126;-86
2023/01/19 01:04:07;;;;;;;25.27;14.43;;;;;;;8.15;66.07;99044.22;5112572;28;20403;-86
2023/01/19 01:06:52;;;;;;;31.60;17.48;;;;;;;8.15;66.73;99030.69;5102071;28;20047;-86
2023/01/19 01:09:36;;;;;;;24.17;17.13;;;;;;;8.22;65.96;99045.59;5091791;28;20055;-86
2023/01/19 01:12:22;;;;;;;28.15;12.73;;;;;;;8.36;66.11;99044.13;5107629;28;20050;-85
2023/01/19 01:15:09;;;;;;;30.40;17.48;;;;;;;8.34;65.32;99043.66;5118430;28;20055;-85
2023/01/19 01:17:54;;;;;;;31.45;17.85;;;;;;;7.86;66.50;99035.56;5096679;28;20055;-85
2023/01/19 01:20:39;;;;;;;28.33;18.92;;;;;;;7.25;69.32;99043.56;5099495;28;20058;-85
2023/01/19 01:23:23;;;;;;;30.83;17.90;;;;;;;8.01;66.89;99051.91;5110979;28;20513;-85
2023/01/19 01:26:08;;;;;;;28.00;14.50;;;;;;;8.14;66.32;99048.06;5113087;28;20402;-83
2023/01/19 01:28:53;;;;;;;22.45;13.63;;;;;;;8.31;65.87;99051.69;5108698;28;20054;-84
2023/01/19 01:31:37;;;;;;;23.70;14.18;;;;;;;8.48;65.03;99046.78;5108033;28;20047;-83
2023/01/19 01:34:22;;;;;;;26.08;15.90;;;;;;;8.42;65.15;99050.09;5121217;28;20050;-84
2023/01/19 01:37:08;;;;;;;30.27;16.70;;;;;;;8.32;65.21;99045.94;5122035;28;20043;-84
2023/01/19 01:39:53;;;;;;;21.08;13.63;;;;;;;8.39;64.27;99040.72;5116869;28;20051;-84
2023/01/19 01:42:39;;;;;;;22.90;12.18;;;;;;;8.42;64.42;99039.25;5095877;28;20047;-85
2023/01/19 01:45:33;;;;;;;21.73;13.73;;;;;;;8.46;64.43;99035.53;5120760;28;20059;-85
2023/01/19 01:48:29;;;;;;;24.98;14.57;;;;;;;8.52;63.99;99034.16;5104509;28;20039;-85
2023/01/19 01:51:25;;;;;;;24.33;14.20;;;;;;;8.44;64.89;99043.19;5120184;28;20051;-85
2023/01/19 01:54:22;;;;;;;;;;;;;;;8.54;64.33;99047.34;5121099;28;20038;-86
2023/01/19 01:57:11;;;;;;;25.15;14.10;;;;;;;8.40;63.96;99047.72;5106575;28;19911;-84
2023/01/19 01:59:57;;;;;;;24.48;14.05;;;;;;;8.37;64.68;99048.41;5106124;28;20043;-83
2023/01/19 02:02:52;;;;;;;26.15;16.27;;;;;;;8.37;64.61;99048.41;5100238;28;20423;-83
2023/01/19 02:05:37;;;;;;;26.35;14.45;;;;;;;8.09;66.13;99042.06;5117538;28;20055;-83
2023/01/19 02:14:41;;;;;;;31.50;17.52;;;;;;;8.02;66.37;99039.16;5118520;28;19916;-83
2023/01/19 02:17:26;;;;;;;36.35;19.15;;;;;;;7.96;66.81;99044.00;5118449;28;20058;-83
2023/01/19 02:20:11;;;;;;;25.02;14.05;;;;;;;7.93;67.11;99038.47;5104801;28;20043;-82
2023/01/19 02:23:02;;;;;;;30.95;17.92;;;;;;;7.95;67.28;99036.22;5113146;28;20043;-85
2023/01/19 02:25:48;;;;;;;32.95;18.42;;;;;;;7.97;66.93;99034.78;5096413;28;20544;-85
2023/01/19 02:28:33;;;;;;;32.45;18.58;;;;;;;7.89;67.32;99034.88;5111311;28;20142;-85
2023/01/19 02:31:18;;;;;;;23.05;13.95;;;;;;;7.92;67.41;99031.50;5119314;28;20050;-85
2023/01/19 02:34:07;;;;;;;32.97;18.38;;;;;;;7.94;67.89;99029.22;5110823;28;20051;-85
2023/01/19 02:36:56;;;;;;;29.40;17.33;;;;;;;8.13;67.01;99026.72;5105838;28;20054;-86
2023/01/19 02:39:45;;;;;;;39.95;18.83;;;;;;;8.12;66.95;99022.47;5102565;28;20035;-86
2023/01/19 02:42:38;;;;;;;34.58;19.58;;;;;;;8.06;66.87;99027.31;5123654;28;20517;-85
2023/01/19 02:45:23;;;;;;;31.35;18.65;;;;;;;8.02;67.08;99021.00;5107834;28;20047;-86
2023/01/19 02:48:08;;;;;;;22.38;14.15;;;;;;;8.01;67.27;99024.06;5097416;28;20055;-86
2023/01/19 02:51:03;;;;;;;37.17;19.00;;;;;;;7.90;67.16;99031.84;5103910;28;20050;-86
2023/01/19 02:53:48;;;;;;;;;;;;;;;7.99;67.03;99034.41;5120209;28;20280;-86
2023/01/19 02:56:53;;;;;;;32.58;16.73;;;;;;;7.98;67.12;99035.53;5120068;28;19911;-86
2023/01/19 02:59:54;;;;;;;32.78;18.58;;;;;;;7.95;67.10;99042.44;5119979;28;20059;-86
2023/01/19 03:02:48;;;;;;;31.25;17.98;;;;;;;8.01;67.17;99035.66;5121901;28;21279;-88
2023/01/19 03:05:55;;;;;;;31.58;18.45;;;;;;;8.11;66.74;99039.84;5118270;28;20054;-89
2023/01/19 03:09:07;;;;;;;31.23;17.70;;;;;;;7.96;66.51;99054.03;5089213;28;20043;-88
2023/01/19 03:12:25;;;;;;;33.05;19.08;;;;;;;7.90;67.09;99049.97;5105800;28;20050;-88
2023/01/19 03:15:22;;;;;;;29.35;17.95;;;;;;;7.92;67.28;99053.16;5101239;28;20043;-88
2023/01/19 03:18:10;;;;;;;28.75;16.25;;;;;;;7.73;68.12;99051.78;5113957;28;20038;-87
2023/01/19 03:20:59;;;;;;;27.70;16.50;;;;;;;7.95;67.50;99057.88;5119060;28;20410;-86
2023/01/19 03:23:47;;;;;;;27.52;16.98;;;;;;;7.93;67.40;99055.50;5102696;28;20059;-86
2023/01/19 03:26:37;;;;;;;31.08;17.75;;;;;;;7.71;68.06;99064.84;5102673;28;20046;-87
2023/01/19 03:29:26;;;;;;;29.02;17.55;;;;;;;7.46;68.99;99067.84;5118255;28;20042;-87
2023/01/19 03:32:16;;;;;;;29.73;16.73;;;;;;;7.68;68.48;99070.13;5104865;28;20035;-85
2023/01/19 03:35:06;;;;;;;29.80;18.05;;;;;;;7.80;68.03;99069.38;5114981;28;20050;-86
2023/01/19 03:37:54;;;;;;;34.35;18.85;;;;;;;7.93;67.73;99076.34;5094674;28;20034;-84
2023/01/19 03:40:40;;;;;;;33.95;17.95;;;;;;;7.67;68.42;99058.53;5118601;28;20050;-85
2023/01/19 03:43:26;;;;;;;31.58;17.88;;;;;;;7.79;68.53;99056.97;5123648;28;20047;-86
2023/01/19 03:46:11;;;;;;;31.08;17.20;;;;;;;7.51;69.21;99062.22;5117748;28;20062;-85
2023/01/19 03:48:57;;;;;;;29.25;17.80;;;;;;;7.66;69.08;99059.66;5109438;28;20047;-82
2023/01/19 03:51:42;;;;;;;29.13;16.05;;;;;;;7.52;69.52;99051.06;5107484;28;20441;-85
2023/01/19 03:54:27;;;;;;;31.17;26.92;;;;;;;7.74;68.52;99050.66;5105750;28;20046;-82
2023/01/19 03:57:11;;;;;;;24.08;13.50;;;;;;;7.67;68.43;99053.09;5117691;28;20422;-82
2023/01/19 03:59:56;;;;;;;31.85;18.80;;;;;;;7.74;68.42;99060.69;5097511;28;20042;-85
2023/01/19 04:02:41;;;;;;;22.85;13.48;;;;;;;7.84;67.85;99068.34;5100234;28;20051;-86
2023/01/19 04:05:26;;;;;;;24.13;14.48;;;;;;;7.76;68.21;99071.19;5090303;28;20047;-87
2023/01/19 04:08:11;;;;;;;21.50;13.18;;;;;;;7.82;68.43;99065.22;5083136;28;20055;-86
2023/01/19 04:10:57;;;;;;;31.45;17.42;;;;;;;7.73;68.50;99053.69;5094038;28;20046;-87
2023/01/19 04:13:42;;;;;;;30.73;18.05;;;;;;;7.72;68.56;99049.38;5111821;28;20058;-82
2023/01/19 04:16:27;;;;;;;29.15;17.98;;;;;;;7.80;68.65;99047.72;5100308;28;20053;-81
2023/01/19 04:19:12;;;;;;;34.53;18.67;;;;;;;7.68;68.78;99051.19;5119783;28;20046;-88
2023/01/19 04:21:58;;;;;;;31.52;17.50;;;;;;;7.85;68.26;99044.78;5101450;28;20419;-87
2023/01/19 04:24:42;;;;;;;27.52;15.15;;;;;;;7.72;68.65;99052.88;5111739;28;20046;-87
2023/01/19 04:27:27;;;;;;;35.05;19.02;;;;;;;7.61;68.88;99059.88;5121758;28;20055;-88
2023/01/19 04:30:13;;;;;;;33.42;19.98;;;;;;;7.48;69.94;99060.97;5125938;28;20039;-88
2023/01/19 04:32:58;;;;;;;24.10;14.77;;;;;;;7.50;69.53;99066.84;5107305;28;20046;-88
2023/01/19 04:35:44;;;;;;;25.10;13.80;;;;;;;7.59;69.36;99074.84;5112062;28;20042;-88
2023/01/19 04:38:28;;;;;;;35.70;18.95;;;;;;;7.60;69.41;99079.16;5102330;28;20047;-86
2023/01/19 04:41:13;;;;;;;43.13;19.33;;;;;;;7.68;69.57;99081.75;5116151;28;20043;-88
2023/01/19 04:43:58;;;;;;;31.80;19.05;;;;;;;7.70;69.31;99087.63;5109548;28;20051;-88
2023/01/19 04:46:43;;;;;;;23.85;13.63;;;;;;;7.58;69.59;99093.00;5109835;28;20066;-87
2023/01/19 04:49:28;;;;;;;19.95;12.80;;;;;;;7.57;69.95;99085.22;5106139;28;20047;-88
2023/01/19 04:52:13;;;;;;;22.35;12.82;;;;;;;7.63;69.79;99073.06;5109234;28;20050;-87
2023/01/19 04:54:57;;;;;;;28.95;17.20;;;;;;;7.52;70.16;99069.19;5090357;28;20043;-87
2023/01/19 04:57:44;;;;;;;27.98;13.75;;;;;;;7.48;70.64;99071.78;5093738;28;20058;-88
2023/01/19 05:00:29;;;;;;;30.50;17.88;;;;;;;7.61;70.08;99076.13;5118702;28;20042;-88
2023/01/19 05:03:18;;;;;;;32.17;17.58;;;;;;;7.61;70.02;99078.81;5114511;28;20043;-86
2023/01/19 05:06:03;;;;;;;30.95;17.40;;;;;;;7.70;69.56;99076.00;5089147;28;20055;-87
2023/01/19 05:08:48;;;;;;;31.58;18.75;;;;;;;7.78;69.52;99091.34;5110785;28;20046;-87
2023/01/19 05:11:35;;;;;;;23.85;14.25;;;;;;;7.69;69.50;99094.16;5113730;28;20051;-87
2023/01/19 05:14:21;;;;;;;30.90;18.25;;;;;;;7.59;69.67;99102.69;5089454;28;20051;-87
2023/01/19 05:17:06;;;;;;;30.50;18.45;;;;;;;7.68;69.84;99105.31;5111324;28;20042;-87
2023/01/19 05:19:52;;;;;;;25.50;14.73;;;;;;;7.59;70.06;99110.81;5120567;28;20058;-87
2023/01/19 05:22:38;;;;;;;34.78;18.75;;;;;;;7.59;69.71;99104.63;5114802;28;20529;-86
2023/01/19 05:25:22;;;;;;;29.50;16.10;;;;;;;7.47;70.57;99097.25;5088026;28;20074;-86
2023/01/19 05:28:07;;;;;;;21.52;13.82;;;;;;;7.11;76.18;99106.03;5084449;28;20055;-86
2023/01/19 05:30:53;;;;;;;21.02;13.15;;;;;;;6.99;78.47;99102.47;5091849;28;20051;-86
2023/01/19 05:33:39;;;;;;;31.70;18.90;;;;;;;7.29;76.75;99103.97;5092610;28;20529;-87
2023/01/19 05:36:24;;;;;;;29.20;17.42;;;;;;;7.12;75.71;99102.19;5095583;28;20063;-88
2023/01/19 05:39:09;;;;;;;32.08;18.17;;;;;;;6.92;74.92;99110.31;5113648;28;20043;-88
2023/01/19 05:41:54;;;;;;;19.67;12.27;;;;;;;6.93;74.77;99115.41;5113477;28;20050;-86
2023/01/19 05:44:39;;;;;;;31.50;16.50;;;;;;;6.82;74.70;99115.00;5128093;28;20058;-87
2023/01/19 05:47:24;;;;;;;20.52;10.73;;;;;;;7.22;77.70;99122.63;5120964;28;20050;-85
2023/01/19 05:50:09;;;;;;;22.17;13.13;;;;;;;6.77;74.58;99115.19;5121658;28;20046;-84
2023/01/19 05:52:54;;;;;;;22.17;11.45;;;;;;;6.79;74.89;99125.69;5109740;28;20051;-85
2023/01/19 05:55:38;;;;;;;33.97;18.13;;;;;;;6.74;75.11;99120.47;5109589;28;20046;-84
2023/01/19 05:58:23;;;;;;;17.13;10.43;;;;;;;6.93;74.79;99126.22;5093559;28;20281;-85
2023/01/19 06:01:09;;;;;;;17.52;9.82;;;;;;;7.03;73.83;99125.81;5105772;28;20054;-85
2023/01/19 06:03:54;;;;;;;28.20;16.73;;;;;;;7.20;75.52;99122.97;5111969;28;20521;-85
2023/01/19 06:06:38;;;;;;;25.42;15.40;;;;;;;7.03;73.52;99128.50;5109845;28;20055;-86
2023/01/19 06:09:22;;;;;;;19.63;11.13;;;;;;;7.48;73.36;99131.28;5109454;28;20055;-86
2023/01/19 06:12:07;;;;;;;14.20;8.93;;;;;;;7.34;72.30;99132.69;5110584;28;20241;-85
2023/01/19 06:14:52;;;;;;;14.60;8.18;;;;;;;7.15;72.31;99135.91;5100050;28;20054;-84
2023/01/19 06:17:38;;;;;;;12.35;6.53;;;;;;;7.21;71.73;99145.41;5106044;28;20517;-84
2023/01/19 06:20:23;;;;;;;15.18;9.07;;;;;;;6.92;72.75;99148.94;5100515;28;20055;-86
2023/01/19 06:23:07;;;;;;;11.60;6.83;;;;;;;7.09;72.13;99158.84;5112990;28;20047;-86
2023/01/19 06:25:52;;;;;;;12.35;7.30;;;;;;;7.30;70.88;99162.31;5123659;28;20272;-86
2023/01/19 06:28:36;;;;;;;16.17;9.75;;;;;;;7.47;71.27;99172.97;5123557;28;20042;-87
2023/01/19 06:31:21;;;;;;;15.90;7.72;;;;;;;7.51;71.08;99178.53;5127225;28;20051;-86
2023/01/19 06:34:07;;;;;;;19.25;9.43;;;;;;;7.62;70.08;99183.16;5127013;28;20067;-85
2023/01/19 06:36:51;;;;;;;10.45;7.28;;;;;;;7.83;70.43;99185.03;5104954;28;20050;-87
2023/01/19 06:39:41;;;;;;;12.60;8.07;;;;;;;7.17;71.79;99185.78;5111865;28;20047;-86
2023/01/19 06:42:25;;;;;;;17.13;9.88;;;;;;;6.92;73.19;99177.88;5103632;28;20413;-87
2023/01/19 06:45:10;;;;;;;14.18;8.07;;;;;;;7.18;72.36;99192.00;5109182;28;20047;-86
2023/01/19 06:47:55;;;;;;;22.70;10.75;;;;;;;7.31;72.87;99189.00;5086816;28;20054;-87
2023/01/19 06:50:40;;;;;;;15.23;8.95;;;;;;;7.63;72.14;99195.56;5106119;28;20047;-86
2023/01/19 06:53:26;;;;;;;15.07;8.15;;;;;;;8.08;71.75;99200.22;5107172;28;20051;-86
2023/01/19 06:56:11;;;;;;;21.27;11.70;;;;;;;8.19;70.03;99198.66;5108191;28;20047;-86
2023/01/19 06:58:56;;;;;;;13.82;8.00;;;;;;;9.34;71.47;99194.56;5107862;28;20042;-87
2023/01/19 07:01:41;;;;;;;;;;;;;;;11.16;65.25;99195.28;5104857;28;20050;-87
2023/01/19 07:04:26;;;;;;;16.60;9.65;;;;;;;11.78;59.41;99199.69;5110444;28;19912;-86
2023/01/19 07:07:11;;;;;;;9.85;6.20;;;;;;;12.16;57.14;99208.94;5119341;28;20051;-86
2023/01/19 07:09:55;;;;;;;13.23;7.85;;;;;;;12.83;55.59;99219.03;5113141;28;20039;-87
2023/01/19 07:12:40;;;;;;;9.68;6.55;;;;;;;11.87;55.49;99235.66;5112507;28;20047;-87
2023/01/19 07:15:25;;;;;;;6.07;4.40;;;;;;;10.98;57.46;99241.09;5125000;28;20113;-86
2023/01/19 07:18:10;;;;;;;6.05;3.90;;;;;;;10.01;58.24;99236.31;5118754;28;20109;-86
2023/01/19 07:20:56;;;;;;;6.32;3.53;;;;;;;9.45;58.51;99244.47;5124394;28;20054;-86
2023/01/19 07:23:42;;;;;;;7.20;4.68;;;;;;;9.11;59.87;99255.84;5112632;28;20093;-85
2023/01/19 07:26:27;;;;;;;6.75;3.90;;;;;;;8.67;61.16;99273.00;5106471;28;20059;-85
2023/01/19 07:29:12;;;;;;;4.38;2.88;;;;;;;8.25;62.30;99273.13;5113188;28;20047;-86
2023/01/19 07:31:56;;;;;;;5.03;3.05;;;;;;;7.92;63.40;99281.28;5110979;28;20050;-86
2023/01/19 07:34:41;;;;;;;5.85;2.83;;;;;;;7.82;63.66;99289.81;5112761;28;20047;-86
2023/01/19 07:37:26;;;;;;;3.95;2.63;;;;;;;7.82;64.27;99291.72;5111821;28;20050;-87
2023/01/19 07:40:10;;;;;;;3.70;2.50;;;;;;;7.42;65.02;99294.88;5109934;28;20035;-86
2023/01/19 07:42:55;;;;;;;3.45;2.28;;;;;;;7.57;64.91;99296.97;5122822;28;20070;-86
2023/01/19 07:45:40;;;;;;;4.37;2.70;;;;;;;7.67;64.94;99320.94;5123495;28;20046;-87
2023/01/19 07:48:25;;;;;;;2.97;2.00;;;;;;;7.60;64.77;99317.19;5129223;27;20051;-88
2023/01/19 07:51:11;;;;;;;5.55;2.38;;;;;;;7.59;65.48;99321.81;5114031;28;20054;-85
2023/01/19 07:53:56;;;;;;;4.22;2.47;;;;;;;7.68;64.75;99321.72;5110361;28;20046;-86
2023/01/19 07:56:40;;;;;;;5.90;2.92;;;;;;;7.63;64.97;99336.25;5114994;28;20047;-87
2023/01/19 07:59:29;;;;;;;10.70;5.80;;;;;;;7.64;64.50;99345.16;5107013;28;20046;-87
2023/01/19 08:02:15;;;;;;;8.00;5.20;;;;;;;7.63;63.73;99352.47;5108602;28;20081;-87
2023/01/19 08:05:00;;;;;;;;;;;;;;;7.29;65.97;99367.00;5110861;28;20043;-87
2023/01/19 08:07:46;;;;;;;11.70;5.53;;;;;;;7.38;65.62;99380.47;5109899;28;19911;-87
2023/01/19 08:10:30;;;;;;;6.90;4.57;;;;;;;7.44;65.37;99378.38;5110610;28;20055;-86
2023/01/19 08:13:15;;;;;;;5.30;2.35;;;;;;;7.92;69.29;99394.94;5110305;28;20050;-87
2023/01/19 08:15:59;;;;;;;4.80;2.70;;;;;;;8.30;65.05;99404.84;5102117;28;20043;-87
2023/01/19 08:18:44;;;;;;;3.28;2.40;;;;;;;7.82;63.89;99403.47;5127011;28;20043;-87
2023/01/19 08:21:29;;;;;;;3.30;1.98;;;;;;;8.05;66.41;99399.31;5125336;28;20517;-87
2023/01/19 08:24:18;;;;;;;4.80;2.50;;;;;;;8.14;64.26;99399.22;5126008;28;20444;-87
2023/01/19 08:27:03;;;;;;;3.72;2.13;;;;;;;9.05;66.08;99408.22;5117123;28;20054;-86
2023/01/19 08:29:48;;;;;;;6.72;2.80;;;;;;;8.70;66.31;99413.25;5116861;28;20122;-86
2023/01/19 08:32:33;;;;;;;;;;;;;;;8.99;62.85;99422.00;5125487;28;20054;-87
2023/01/19 08:35:17;;;;;;;1.92;1.60;;;;;;;9.73;65.34;99433.72;5109316;28;19912;-86
2023/01/19 08:38:04;;;;;;;3.33;2.17;;;;;;;11.12;64.04;99436.53;5106770;28;20047;-87
2023/01/19 08:40:48;;;;;;;;;;;;;;;10.35;58.97;99437.91;5104309;28;20421;-84
2023/01/19 08:43:33;;;;;;;;;;;;;;;9.45;59.26;99461.50;5117237;28;19911;-84
2023/01/19 08:46:20;;;;;;;;;;;;;;;9.24;64.13;99457.31;5109689;28;19911;-84
2023/01/19 08:49:05;;;;;;;;;;;;;;;10.32;65.48;99465.75;5107313;28;19922;-84
2023/01/19 08:51:49;;;;;;;;;;;;;;;9.41;57.75;99471.47;5112814;28;19912;-84
2023/01/19 08:54:33;;;;;;;;;;;;;;;8.65;57.30;99471.16;5098402;28;19912;-84
2023/01/19 08:57:18;;;;;;;4.93;1.98;;;;;;;7.96;58.66;99482.50;5120911;28;20384;-86
2023/01/19 09:00:03;;;;;;;8.93;1.77;;;;;;;7.29;60.30;99490.59;5121697;28;20043;-87
2023/01/19 09:02:48;;;;;;;2.97;2.28;;;;;;;7.64;63.57;99499.34;5115829;28;20624;-86
2023/01/19 09:05:36;;;;;;;1.88;1.10;;;;;;;7.53;62.53;99492.72;5122621;28;20050;-86
2023/01/19 09:08:21;;;;;;;2.63;2.03;;;;;;;7.81;63.56;99488.47;5127026;28;20046;-86
2023/01/19 09:11:12;;;;;;;3.57;1.77;;;;;;;9.08;69.48;99488.94;5127041;28;20403;-85
2023/01/19 09:13:57;;;;;;;3.20;1.67;;;;;;;9.08;59.12;99487.00;5123995;28;20038;-86
2023/01/19 09:16:42;;;;;;;;;;;;;;;8.87;59.45;99483.56;5098138;28;20046;-86
2023/01/19 09:19:26;;;;;;;3.72;1.40;;;;;;;8.73;64.60;99478.44;5115619;28;19912;-86
2023/01/19 09:22:11;;;;;;;4.95;1.67;;;;;;;10.03;58.95;99483.91;5114705;28;20038;-86
2023/01/19 09:24:55;;;;;;;5.82;1.35;;;;;;;10.94;62.75;99495.09;5112829;28;20529;-86
2023/01/19 09:27:40;;;;;;;4.93;1.35;;;;;;;11.80;59.27;99507.84;5108356;28;20047;-85
2023/01/19 09:30:26;;;;;;;3.35;1.63;;;;;;;10.21;52.14;99512.41;5106976;28;20067;-85
2023/01/19 09:33:14;;;;;;;3.17;2.38;;;;;;;8.99;55.20;99510.69;5106743;28;20050;-86
2023/01/19 09:35:58;;;;;;;4.78;3.00;;;;;;;8.18;57.67;99519.28;5112481;28;20434;-87
2023/01/19 09:38:43;;;;;;;2.90;1.50;;;;;;;8.06;62.27;99527.34;5111224;28;20051;-84
2023/01/19 09:41:28;;;;;;;1.15;0.98;;;;;;;8.12;61.02;99528.72;5111041;28;20054;-86
2023/01/19 09:44:37;;;;;;;2.78;1.08;;;;;;;7.77;59.06;99532.75;5114472;28;20057;-86
2023/01/19 09:47:27;;;;;;;2.42;1.58;;;;;;;7.33;60.50;99540.19;5115280;28;20047;-85
2023/01/19 09:50:23;;;;;;;10.73;1.98;;;;;;;7.25;63.32;99535.63;5099212;28;20046;-85
2023/01/19 09:53:15;;;;;;;3.63;1.70;;;;;;;6.93;61.87;99533.44;5117310;28;20039;-84
2023/01/19 09:56:00;;;;;;;3.28;1.85;;;;;;;6.62;63.46;99553.31;5115827;28;20046;-84
2023/01/19 09:58:47;;;;;;;2.78;1.02;;;;;;;7.17;65.48;99552.63;5114305;28;20398;-84
2023/01/19 10:01:39;;;;;;;2.65;1.60;;;;;;;6.55;63.05;99549.50;5117913;28;20051;-84
2023/01/19 10:04:36;;;;;;;2.45;1.52;;;;;;;6.52;63.59;99550.91;5122497;28;20039;-83
2023/01/19 10:07:31;;;;;;;7.13;1.45;;;;;;;6.69;65.93;99560.94;5122211;28;20040;-83
2023/01/19 10:10:25;;;;;;;1.88;1.40;;;;;;;6.59;63.51;99543.16;5109152;28;20039;-85
2023/01/19 10:13:37;;;;;;;3.77;1.83;;;;;;;6.64;69.31;99545.69;5117201;28;20046;-82
2023/01/19 10:16:58;;;;;;;3.35;1.27;;;;;;;7.61;64.52;99559.53;5106301;28;20522;-80
2023/01/19 10:19:52;;;;;;;3.47;1.70;;;;;;;7.09;64.14;99543.44;5112474;28;20517;-79
2023/01/19 10:22:37;;;;;;;4.82;2.75;;;;;;;6.97;64.77;99550.59;5113832;28;20047;-79
2023/01/19 10:25:23;;;;;;;5.38;0.90;;;;;;;7.11;65.28;99548.53;5104631;28;20055;-80
2023/01/19 10:28:12;;;;;;;13.52;2.20;;;;;;;7.52;66.79;99559.53;5117641;28;20425;-80
2023/01/19 10:30:56;;;;;;;16.23;2.35;;;;;;;7.75;66.75;99568.22;5103240;28;20066;-80
2023/01/19 10:33:41;;;;;;;15.73;2.40;;;;;;;8.59;67.57;99561.88;5108245;28;20042;-81
2023/01/19 11:31:56;;;;;;;4.25;1.15;;;;;;;11.74;54.58;99524.81;5112538;28;20047;-81
2023/01/19 11:34:41;;;;;;;2.88;1.42;;;;;;;12.44;49.02;99525.69;5110190;28;20042;-82
2023/01/19 11:37:29;;;;;;;1.33;0.73;;;;;;;12.75;50.50;99525.56;5114981;28;20051;-82
2023/01/19 11:40:15;;;;;;;4.45;1.58;;;;;;;12.74;49.47;99521.28;5114940;28;20043;-83
2023/01/19 11:43:00;;;;;;;2.08;1.50;;;;;;;12.87;47.49;99519.16;5114489;28;20042;-83
2023/01/19 11:45:46;;;;;;;6.15;1.08;;;;;;;12.83;48.61;99518.31;5108635;28;20038;-82
2023/01/19 11:48:42;;;;;;;2.00;1.10;;;;;;;13.44;47.77;99507.41;5100701;28;20051;-83
2023/01/19 11:51:34;;;;;;;3.20;0.95;;;;;;;13.90;46.75;99515.59;5100256;28;20044;-83
2023/01/19 11:54:26;;;;;;;2.45;0.80;;;;;;;14.11;46.24;99513.97;5107698;28;20034;-83
2023/01/19 11:57:15;;;;;;;3.45;0.82;;;;;;;13.89;46.63;99505.81;5100368;28;20050;-83
2023/01/19 12:00:10;;;;;;;1.38;0.80;;;;;;;14.03;46.25;99504.09;5112916;28;20059;-83
2023/01/19 12:03:12;;;;;;;2.03;0.65;;;;;;;13.57;47.21;99508.81;5094404;28;20051;-83
2023/01/19 12:06:03;;;;;;;1.38;0.70;;;;;;;13.61;47.24;99504.19;5084517;28;20518;-83
2023/01/19 12:09:27;;;;;;;1.90;0.70;;;;;;;14.11;45.79;99502.25;5097263;28;20520;-83
2023/01/19 12:12:22;;;;;;;;;;;;;;;13.07;43.97;99509.03;5103265;28;20062;-84
2023/01/19 12:15:21;;;;;;;;;;;;;;;10.90;48.29;99507.81;5095783;28;19911;-84
2023/01/19 12:18:13;;;;;;;3.50;1.20;;;;;;;10.96;49.54;99506.44;5097505;28;20389;-81
2023/01/19 12:20:58;;;;;;;3.03;1.73;;;;;;;10.02;49.69;99501.31;5110819;28;20038;-82
2023/01/19 12:24:09;;;;;;;1.58;1.02;;;;;;;9.32;53.92;99502.53;5100914;28;20051;-83
2023/01/19 12:27:03;;;;;;;2.78;1.23;;;;;;;10.05;56.16;99494.44;5103609;28;20050;-82
2023/01/19 12:29:48;;;;;;;7.07;1.27;;;;;;;11.37;55.85;99502.47;5091643;28;20046;-81
2023/01/19 12:32:35;;;;;;;3.78;1.48;;;;;;;11.88;50.08;99506.09;5100592;28;20051;-83
2023/01/19 12:35:59;;;;;;;2.70;1.38;;;;;;;9.75;50.36;99500.09;5103127;28;20129;-83
2023/01/19 12:38:44;;;;;;;5.10;2.58;;;;;;;9.47;51.96;99503.81;5101045;28;20050;-82
2023/01/19 12:41:30;;;;;;;4.45;2.00;;;;;;;8.73;54.06;99497.41;5104379;28;20043;-83
2023/01/19 12:44:20;;;;;;;3.58;2.97;;;;;;;8.67;54.43;99493.31;5114380;28;20434;-83
2023/01/19 12:47:14;;;;;;;8.20;6.18;;;;;;;8.49;54.83;99503.47;5114282;28;20035;-84
2023/01/19 12:50:05;;;;;;;5.93;1.92;;;;;;;8.14;56.30;99499.41;5100569;28;20043;-83
2023/01/19 12:52:57;;;;;;;1.50;1.17;;;;;;;8.16;56.35;99497.16;5106861;28;20043;-83
2023/01/19 12:55:45;;;;;;;3.40;0.90;;;;;;;8.10;56.33;99501.19;5107826;28;20054;-84
2023/01/19 12:58:32;;;;;;;2.53;1.20;;;;;;;7.92;57.40;99491.59;5094884;28;20075;-85
2023/01/19 13:01:20;;;;;;;2.15;1.42;;;;;;;7.97;57.74;99502.22;5100158;28;20058;-84
2023/01/19 13:04:29;;;;;;;4.43;1.08;;;;;;;7.93;57.45;99501.28;5107992;28;20047;-83
2023/01/19 13:07:16;;;;;;;2.10;1.17;;;;;;;7.56;59.51;99505.63;5115991;28;20046;-85
2023/01/19 13:10:39;;;;;;;1.48;1.38;;;;;;;7.52;59.63;99504.66;5114207;28;20051;-84
2023/01/19 13:13:45;;;;;;;2.08;1.25;;;;;;;7.79;59.53;99508.84;5089760;28;20051;-84
2023/01/19 13:16:29;;;;;;;1.65;1.20;;;;;;;7.68;59.55;99508.41;5112363;28;20047;-83
2023/01/19 13:19:17;;;;;;;1.08;0.77;;;;;;;7.76;58.70;99514.91;5114573;28;20046;-84
2023/01/19 13:22:48;;;;;;;1.15;0.85;;;;;;;7.54;59.74;99514.03;5101184;28;20050;-84
2023/01/19 13:25:34;;;;;;;1.30;0.90;;;;;;;7.53;59.83;99528.69;5111772;28;20055;-82
2023/01/19 13:28:33;;;;;;;2.83;2.08;;;;;;;7.32;60.91;99530.50;5096031;28;20403;-82
2023/01/19 13:31:19;;;;;;;2.42;1.23;;;;;;;7.19;60.59;99536.91;5116803;27;20047;-84
2023/01/19 13:34:12;;;;;;;2.97;1.25;;;;;;;7.23;60.09;99530.53;5117925;27;20039;-82
2023/01/19 13:36:58;;;;;;;3.05;2.13;;;;;;;7.09;61.11;99539.94;5112215;28;20047;-83
2023/01/19 13:39:45;;;;;;;3.25;2.00;;;;;;;7.12;61.38;99540.09;5110646;28;20046;-83
2023/01/19 13:42:35;;;;;;;3.90;1.77;;;;;;;7.13;61.33;99535.47;5118916;28;20050;-81
2023/01/19 13:45:38;;;;;;;4.53;1.55;;;;;;;7.11;62.24;99537.72;5117969;28;20043;-82
2023/01/19 13:48:24;;;;;;;2.78;1.73;;;;;;;7.01;62.34;99532.66;5120419;28;20050;-82
2023/01/19 13:51:17;;;;;;;2.30;1.50;;;;;;;7.02;63.05;99540.41;5122167;28;20402;-81
2023/01/19 13:54:02;;;;;;;3.42;2.28;;;;;;;6.97;63.96;99537.06;5097962;28;20122;-84
2023/01/19 13:56:50;;;;;;;1.80;1.15;;;;;;;7.10;63.23;99538.81;5117565;28;20505;-83
2023/01/19 13:59:35;;;;;;;3.85;1.77;;;;;;;7.11;63.22;99552.00;5118495;28;20054;-82
2023/01/19 14:02:20;;;;;;;1.85;0.88;;;;;;;7.11;63.32;99543.13;5118522;28;20034;-83
2023/01/19 14:05:18;;;;;;;1.08;0.90;;;;;;;7.04;64.17;99545.50;5118447;28;20066;-83
2023/01/19 14:08:05;;;;;;;3.53;1.35;;;;;;;7.14;64.13;99547.88;5104027;28;20047;-83
2023/01/19 14:10:50;;;;;;;1.25;1.00;;;;;;;7.10;64.31;99546.94;5117854;28;20046;-80
2023/01/19 14:13:42;;;;;;;0.98;0.90;;;;;;;7.10;64.52;99547.72;5117909;28;20540;-80
2023/01/19 14:16:26;;;;;;;2.00;1.00;;;;;;;7.22;64.00;99549.75;5101322;28;20055;-81
2023/01/19 14:19:11;;;;;;;1.38;0.82;;;;;;;7.20;64.42;99552.81;5105137;28;20042;-82